Emu Arrow — C6OR4 — position and weather

sailwx.info

Track history (hours):
 
Tides and Currents Weather Stations Pressure Air Temp Water Temp Dewpoint Dewpoint Depression Visibility Wind Speed Wind Dir Waves Ship Positions

Emu Arrow

Last reported at 2014-Oct-12 01:10 UTC. Time now 2014-Oct-23 22:01 UTC.
Position S 26°32' E 153°46'.
Warning: this ship's position is 11 days out of date.

Length 200 m; draft 10.8 m.

Type: Cargo ship. MMSI: 309805000.

Date/timePositionNaut miles runAvg speedWind from/ knotsBaromVisibWave heightAir tempDewpointWater temp
2014-Oct-12 01:10S 26°32' E 153°46'1011.4
2014-Oct-12 00:16S 26°43' E 153°47'1211.2
2014-Oct-11 23:15S 26°54' E 153°48'811.5
2014-Oct-11 22:33S 27°02' E 153°49'1211.8
2014-Oct-11 21:33S 27°14' E 153°49'1712.0
2014-Oct-11 20:10S 27°30' E 153°49'711.6
2014-Oct-11 19:33S 27°38' E 153°49'1111.2
2014-Oct-11 18:33S 27°49' E 153°49'1111.0
2014-Oct-11 17:33S 27°60' E 153°49'1010.1
2014-Oct-11 16:33S 28°10' E 153°49'268 9.5
2014-Oct-10 12:28S 32°30' E 152°37'7 8.0
2014-Oct-10 11:33S 32°36' E 152°32'8 8.4
2014-Oct-10 10:33S 32°43' E 152°27'9 8.9
2014-Oct-10 09:33S 32°51' E 152°20'10 9.5
2014-Oct-10 08:33S 32°58' E 152°14'10 9.6
2014-Oct-10 07:33S 33°06' E 152°07'9 9.3
2014-Oct-10 06:33S 33°14' E 152°01'10 9.6
2014-Oct-10 05:33S 33°22' E 151°55'1010.2
2014-Oct-10 04:33S 33°30' E 151°48'1110.8
2014-Oct-10 03:31S 33°40' E 151°41'  
2014-Oct-06 05:11S 39°17' E 146°12'222 7.9
2014-Oct-05 01:05S 38°21' E 141°37'0 0.0
2014-Oct-05 00:32S 38°21' E 141°37'0 0.0
2014-Oct-04 23:32S 38°21' E 141°37'0 0.0
2014-Oct-04 22:32S 38°21' E 141°37'0 0.0
2014-Oct-04 21:32S 38°21' E 141°37'0 0.0
2014-Oct-04 20:32S 38°21' E 141°37'0 0.0
2014-Oct-04 19:32S 38°21' E 141°37'0 0.0
2014-Oct-04 18:32S 38°21' E 141°37'0 0.0
2014-Oct-04 17:32S 38°21' E 141°37'0 0.0
2014-Oct-04 16:32S 38°21' E 141°37'0 0.0
2014-Oct-04 15:29S 38°21' E 141°37'0 0.0
2014-Oct-04 14:32S 38°21' E 141°37'0 0.0
2014-Oct-04 13:32S 38°21' E 141°37'0 0.0
2014-Oct-04 12:29S 38°21' E 141°37'0 0.0
2014-Oct-04 11:32S 38°21' E 141°37'0 0.0
2014-Oct-04 10:32S 38°21' E 141°37'0 0.0
2014-Oct-04 09:33S 38°21' E 141°37'0 0.0
2014-Oct-04 08:29S 38°21' E 141°37'0 0.0
2014-Oct-04 07:32S 38°21' E 141°37'0 0.0
2014-Oct-04 06:32S 38°21' E 141°37'0 0.0
2014-Oct-04 05:29S 38°21' E 141°37'0 0.0
2014-Oct-04 04:32S 38°21' E 141°37'0 0.0
2014-Oct-04 03:32S 38°21' E 141°37'0 0.0
2014-Oct-04 02:32S 38°21' E 141°37'0 0.0
2014-Oct-04 01:29S 38°21' E 141°37'0 0.0
2014-Oct-04 00:32S 38°21' E 141°37'0 0.0
2014-Oct-03 23:32S 38°21' E 141°37'0 0.0
2014-Oct-03 22:29S 38°21' E 141°37'0 0.0
2014-Oct-03 21:32S 38°21' E 141°37'0 0.0
2014-Oct-03 20:32S 38°21' E 141°37'0 0.0
2014-Oct-03 19:29S 38°21' E 141°37'0 0.0
2014-Oct-03 18:32S 38°21' E 141°37'0 0.0
2014-Oct-03 17:32S 38°21' E 141°37'0 0.0
2014-Oct-03 16:32S 38°21' E 141°37'0 0.0
2014-Oct-03 15:32S 38°21' E 141°37'0 0.0
2014-Oct-03 14:32S 38°21' E 141°37'0 0.0
2014-Oct-03 13:32S 38°21' E 141°37'0 0.0
2014-Oct-03 12:32S 38°21' E 141°37'0 0.1
2014-Oct-03 11:30S 38°21' E 141°37'3 3.5
2014-Oct-03 10:33S 38°20' E 141°41'4 4.3
2014-Oct-03 09:32S 38°24' E 141°44'1010.0
2014-Oct-03 08:33S 38°29' E 141°33'2110.2
2014-Oct-03 06:27S 38°18' E 141°10'  
Track history (hours):
 
Tides and Currents Weather Stations Pressure Air Temp Water Temp Dewpoint Dewpoint Depression Visibility Wind Speed Wind Dir Waves Ship Positions

Emu Arrow

Last reported at 2014-Oct-12 01:10 UTC. Time now 2014-Oct-23 22:01 UTC.
Position S 26°32' E 153°46'.
Warning: this ship's position is 11 days out of date.

Length 200 m; draft 10.8 m.

Type: Cargo ship. MMSI: 309805000.

Date/timePositionNaut miles runAvg speedWind from/ knotsBaromVisibWave heightAir tempDewpointWater temp
2014-Oct-12 01:10S 26°32' E 153°46'1011.4
2014-Oct-12 00:16S 26°43' E 153°47'1211.2
2014-Oct-11 23:15S 26°54' E 153°48'811.5
2014-Oct-11 22:33S 27°02' E 153°49'1211.8
2014-Oct-11 21:33S 27°14' E 153°49'1712.0
2014-Oct-11 20:10S 27°30' E 153°49'711.6
2014-Oct-11 19:33S 27°38' E 153°49'1111.2
2014-Oct-11 18:33S 27°49' E 153°49'1111.0
2014-Oct-11 17:33S 27°60' E 153°49'1010.1
2014-Oct-11 16:33S 28°10' E 153°49'268 9.5
2014-Oct-10 12:28S 32°30' E 152°37'7 8.0
2014-Oct-10 11:33S 32°36' E 152°32'8 8.4
2014-Oct-10 10:33S 32°43' E 152°27'9 8.9
2014-Oct-10 09:33S 32°51' E 152°20'10 9.5
2014-Oct-10 08:33S 32°58' E 152°14'10 9.6
2014-Oct-10 07:33S 33°06' E 152°07'9 9.3
2014-Oct-10 06:33S 33°14' E 152°01'10 9.6
2014-Oct-10 05:33S 33°22' E 151°55'1010.2
2014-Oct-10 04:33S 33°30' E 151°48'1110.8
2014-Oct-10 03:31S 33°40' E 151°41'  
2014-Oct-06 05:11S 39°17' E 146°12'222 7.9
2014-Oct-05 01:05S 38°21' E 141°37'0 0.0
2014-Oct-05 00:32S 38°21' E 141°37'0 0.0
2014-Oct-04 23:32S 38°21' E 141°37'0 0.0
2014-Oct-04 22:32S 38°21' E 141°37'0 0.0
2014-Oct-04 21:32S 38°21' E 141°37'0 0.0
2014-Oct-04 20:32S 38°21' E 141°37'0 0.0
2014-Oct-04 19:32S 38°21' E 141°37'0 0.0
2014-Oct-04 18:32S 38°21' E 141°37'0 0.0
2014-Oct-04 17:32S 38°21' E 141°37'0 0.0
2014-Oct-04 16:32S 38°21' E 141°37'0 0.0
2014-Oct-04 15:29S 38°21' E 141°37'0 0.0
2014-Oct-04 14:32S 38°21' E 141°37'0 0.0
2014-Oct-04 13:32S 38°21' E 141°37'0 0.0
2014-Oct-04 12:29S 38°21' E 141°37'0 0.0
2014-Oct-04 11:32S 38°21' E 141°37'0 0.0
2014-Oct-04 10:32S 38°21' E 141°37'0 0.0
2014-Oct-04 09:33S 38°21' E 141°37'0 0.0
2014-Oct-04 08:29S 38°21' E 141°37'0 0.0
2014-Oct-04 07:32S 38°21' E 141°37'0 0.0
2014-Oct-04 06:32S 38°21' E 141°37'0 0.0
2014-Oct-04 05:29S 38°21' E 141°37'0 0.0
2014-Oct-04 04:32S 38°21' E 141°37'0 0.0
2014-Oct-04 03:32S 38°21' E 141°37'0 0.0
2014-Oct-04 02:32S 38°21' E 141°37'0 0.0
2014-Oct-04 01:29S 38°21' E 141°37'0 0.0
2014-Oct-04 00:32S 38°21' E 141°37'0 0.0
2014-Oct-03 23:32S 38°21' E 141°37'0 0.0
2014-Oct-03 22:29S 38°21' E 141°37'0 0.0
2014-Oct-03 21:32S 38°21' E 141°37'0 0.0
2014-Oct-03 20:32S 38°21' E 141°37'0 0.0
2014-Oct-03 19:29S 38°21' E 141°37'0 0.0
2014-Oct-03 18:32S 38°21' E 141°37'0 0.0
2014-Oct-03 17:32S 38°21' E 141°37'0 0.0
2014-Oct-03 16:32S 38°21' E 141°37'0 0.0
2014-Oct-03 15:32S 38°21' E 141°37'0 0.0
2014-Oct-03 14:32S 38°21' E 141°37'0 0.0
2014-Oct-03 13:32S 38°21' E 141°37'0 0.0
2014-Oct-03 12:32S 38°21' E 141°37'0 0.1
2014-Oct-03 11:30S 38°21' E 141°37'3 3.5
2014-Oct-03 10:33S 38°20' E 141°41'4 4.3
2014-Oct-03 09:32S 38°24' E 141°44'1010.0
2014-Oct-03 08:33S 38°29' E 141°33'2110.2
2014-Oct-03 06:27S 38°18' E 141°10'  

Dump ship's entire track history